Time;durP1;ratioP1;P1;durP2;ratioP2;P2;SDS_P1;SDS_P2;PMS_P1;PMS_P2;Temp;Humidity;BMP_temperature;BMP_pressure;BME280_temperature;BME280_humidity;BME280_pressure;Samples;Min_cycle;Max_cycle;Signal;HPM_P1;HPM_P2
2023/09/13 00:00:56;;;;;;;2.78;2.58;;;;;;;16.56;57.60;63707.19;4809437;29;20261;-74
2023/09/13 00:03:23;;;;;;;4.00;3.15;;;;;;;16.55;57.46;63710.78;4817023;29;20241;-74
2023/09/13 00:05:50;;;;;;;2.85;1.83;;;;;;;16.56;57.88;63709.75;4814678;29;20343;-75
2023/09/13 00:08:17;;;;;;;6.72;2.47;;;;;;;16.59;58.59;63712.34;4811638;29;20213;-74
2023/09/13 00:10:45;;;;;;;4.28;2.40;;;;;;;16.49;58.48;63702.47;4815850;29;20233;-75
2023/09/13 00:13:14;;;;;;;3.95;2.78;;;;;;;16.45;58.74;63698.28;4816469;29;20428;-74
2023/09/13 00:15:44;;;;;;;2.65;2.33;;;;;;;16.42;58.43;63699.78;4815072;29;20240;-74
2023/09/13 00:18:14;;;;;;;3.20;2.55;;;;;;;16.43;58.04;63700.84;4805788;29;20252;-74
2023/09/13 00:20:42;;;;;;;4.90;2.65;;;;;;;16.47;58.30;63705.53;4817068;29;20298;-74
2023/09/13 00:23:09;;;;;;;3.60;2.83;;;;;;;16.45;59.32;63703.44;4816668;29;20611;-74
2023/09/13 00:25:36;;;;;;;6.75;2.58;;;;;;;16.47;58.92;63702.97;4813335;29;20241;-74
2023/09/13 00:28:02;;;;;;;2.67;2.45;;;;;;;16.50;59.10;63703.00;4823813;29;20221;-75
2023/09/13 00:30:31;;;;;;;4.55;2.67;;;;;;;16.50;58.75;63700.44;4804775;29;20227;-74
2023/09/13 00:32:58;;;;;;;3.65;2.70;;;;;;;16.54;58.51;63710.25;4804857;29;20226;-75
2023/09/13 00:35:25;;;;;;;5.88;2.67;;;;;;;16.55;58.10;63705.63;4808601;29;20309;-74
2023/09/13 00:37:52;;;;;;;3.13;2.88;;;;;;;16.48;58.76;63701.44;4807614;29;20211;-76
2023/09/13 00:40:19;;;;;;;5.35;2.72;;;;;;;16.54;58.95;63707.69;4797960;30;20356;-75
2023/09/13 00:42:46;;;;;;;3.05;2.78;;;;;;;16.57;58.86;63718.50;4801193;29;20238;-74
2023/09/13 00:45:13;;;;;;;2.78;2.58;;;;;;;16.64;59.40;63714.97;4804199;29;20243;-74
2023/09/13 00:47:42;;;;;;;3.20;2.47;;;;;;;16.66;58.76;63717.06;4816060;29;20241;-74
2023/09/13 00:50:10;;;;;;;2.83;2.63;;;;;;;16.63;59.25;63713.94;4815553;29;20443;-76
2023/09/13 00:52:38;;;;;;;3.00;2.70;;;;;;;16.59;60.10;63714.94;4813292;29;20275;-75
2023/09/13 00:55:07;;;;;;;3.08;2.78;;;;;;;16.56;59.73;63709.75;4815932;29;20267;-74
2023/09/13 00:57:34;;;;;;;5.68;2.53;;;;;;;16.55;60.04;63713.34;4813522;29;20405;-74
2023/09/13 01:00:05;;;;;;;2.58;2.38;;;;;;;16.56;60.88;63711.81;4797724;30;20242;-74
2023/09/13 01:02:32;;;;;;;3.95;2.20;;;;;;;16.55;60.70;63708.72;4809119;29;20278;-74
2023/09/13 01:05:01;;;;;;;3.25;2.22;;;;;;;16.46;60.11;63704.50;4813597;29;20253;-74
2023/09/13 01:07:28;;;;;;;5.72;2.53;;;;;;;16.39;59.53;63688.97;4813644;29;20567;-75
2023/09/13 01:09:55;;;;;;;3.83;2.20;;;;;;;16.41;59.88;63693.63;4812834;29;20245;-75
2023/09/13 01:12:22;;;;;;;3.15;2.95;;;;;;;16.43;61.14;63691.06;4812851;29;20235;-75
2023/09/13 01:14:50;;;;;;;2.60;2.38;;;;;;;16.45;60.63;63695.19;4815762;29;20302;-75
2023/09/13 01:17:22;;;;;;;2.25;2.13;;;;;;;16.46;60.13;63698.81;4816628;29;20229;-76
2023/09/13 01:19:57;;;;;;;2.55;2.30;;;;;;;16.46;59.56;63696.78;4807502;29;20617;-75
2023/09/13 01:22:59;;;;;;;2.53;2.33;;;;;;;16.51;61.11;63704.56;4821817;29;20575;-75
2023/09/13 01:25:50;;;;;;;5.82;2.60;;;;;;;16.41;60.77;63699.25;4815822;29;20225;-74
2023/09/13 01:28:40;;;;;;;5.10;2.40;;;;;;;16.44;61.43;63699.84;4814172;29;20544;-75
2023/09/13 01:31:10;;;;;;;5.60;2.88;;;;;;;16.39;61.19;63691.53;4812065;29;20229;-75
2023/09/13 01:33:38;;;;;;;2.95;2.72;;;;;;;16.38;60.93;63693.59;4817931;29;20222;-75
2023/09/13 01:36:05;;;;;;;2.63;2.10;;;;;;;16.34;61.42;63688.91;4822130;29;20225;-75
2023/09/13 01:38:33;;;;;;;3.38;2.63;;;;;;;16.35;61.52;63687.38;4815733;29;20297;-74
2023/09/13 01:41:06;;;;;;;6.07;2.55;;;;;;;16.31;61.79;63678.09;4813017;29;20297;-74
2023/09/13 01:43:35;;;;;;;2.42;2.22;;;;;;;16.23;62.25;63674.88;4801728;29;20238;-74
2023/09/13 01:46:03;;;;;;;4.88;2.13;;;;;;;16.20;62.30;63674.88;4806043;29;20234;-74
2023/09/13 01:48:32;;;;;;;2.75;2.53;;;;;;;16.19;62.31;63673.81;4806252;29;20419;-75
2023/09/13 01:50:59;;;;;;;2.10;2.00;;;;;;;16.15;62.68;63669.66;4814902;29;20230;-74
2023/09/13 01:53:26;;;;;;;3.55;2.78;;;;;;;16.12;63.14;63666.53;4814944;29;20210;-74
2023/09/13 01:55:53;;;;;;;3.58;2.40;;;;;;;16.07;63.10;63658.75;4808707;29;20251;-73
2023/09/13 01:58:20;;;;;;;3.08;2.30;;;;;;;16.09;63.57;63660.84;4817658;29;20216;-73
2023/09/13 02:00:48;;;;;;;3.47;2.10;;;;;;;16.02;63.70;63656.13;4814046;29;20234;-76
2023/09/13 02:03:15;;;;;;;5.20;2.65;;;;;;;15.81;65.40;63629.69;4800416;29;20294;-73
2023/09/13 02:05:42;;;;;;;5.78;2.33;;;;;;;15.80;65.47;63626.09;4803690;29;20311;-74
2023/09/13 02:08:09;;;;;;;5.00;2.63;;;;;;;15.75;65.54;63622.94;4803449;29;20238;-73
2023/09/13 02:10:35;;;;;;;2.78;2.58;;;;;;;15.74;65.49;63622.41;4810444;29;20284;-75
2023/09/13 02:13:02;;;;;;;3.47;3.17;;;;;;;15.71;65.27;63621.84;4818865;29;20221;-74
2023/09/13 02:15:31;;;;;;;2.70;2.50;;;;;;;15.63;65.95;63610.97;4816547;29;20237;-75
2023/09/13 02:17:59;;;;;;;3.42;2.60;;;;;;;15.65;67.63;63609.97;4813662;29;20224;-73
2023/09/13 02:20:26;;;;;;;6.55;2.55;;;;;;;15.57;67.82;63604.72;4817224;29;20283;-74
2023/09/13 02:22:53;;;;;;;3.20;2.58;;;;;;;15.51;67.62;63600.56;4815512;29;20249;-75
2023/09/13 02:25:20;;;;;;;3.22;2.90;;;;;;;15.48;67.90;63603.06;4820556;29;20238;-75
2023/09/13 02:27:47;;;;;;;2.97;2.78;;;;;;;15.49;68.05;63604.13;4817443;29;20259;-75
2023/09/13 02:30:14;;;;;;;3.53;2.38;;;;;;;15.50;68.27;63604.63;4813934;29;20232;-75
2023/09/13 02:32:41;;;;;;;3.20;2.90;;;;;;;15.49;68.74;63601.03;4816169;29;20232;-75
2023/09/13 02:35:11;;;;;;;3.45;2.55;;;;;;;15.39;69.42;63590.63;4822792;29;20252;-75
2023/09/13 02:37:38;;;;;;;5.13;2.97;;;;;;;15.40;69.99;63592.19;4808430;29;20211;-74
2023/09/13 02:40:06;;;;;;;3.75;2.75;;;;;;;15.39;70.32;63591.16;4800061;29;20242;-74
2023/09/13 02:42:33;;;;;;;4.15;2.58;;;;;;;15.38;70.99;63589.56;4812092;29;20234;-75
2023/09/13 02:45:00;;;;;;;5.68;3.38;;;;;;;15.35;70.28;63581.31;4816675;29;20279;-75
2023/09/13 02:47:27;;;;;;;2.55;2.35;;;;;;;15.35;70.10;63583.88;4810632;29;20213;-73
2023/09/13 02:49:54;;;;;;;5.25;2.60;;;;;;;15.33;70.28;63584.91;4811122;29;20254;-73
2023/09/13 02:52:30;;;;;;;5.05;3.05;;;;;;;15.33;70.88;63584.91;4817817;29;20271;-74
2023/09/13 02:54:57;;;;;;;4.30;3.17;;;;;;;15.28;70.86;63577.13;4815596;29;20244;-74
2023/09/13 02:57:25;;;;;;;7.65;2.85;;;;;;;15.26;72.25;63577.09;4808573;29;20217;-74
2023/09/13 02:59:52;;;;;;;6.35;2.88;;;;;;;15.24;71.62;63575.03;4812390;29;20279;-74
2023/09/13 03:02:19;;;;;;;8.52;2.90;;;;;;;15.19;72.64;63567.25;4811634;29;20491;-75
2023/09/13 03:04:49;;;;;;;3.92;2.53;;;;;;;15.17;72.26;63565.19;4800240;29;20238;-74
2023/09/13 03:07:16;;;;;;;3.80;2.83;;;;;;;15.16;71.79;63566.72;4814464;29;20271;-75
2023/09/13 03:09:45;;;;;;;3.67;2.42;;;;;;;15.02;72.62;63548.06;4811664;29;20289;-73
2023/09/13 03:12:12;;;;;;;4.82;2.70;;;;;;;15.16;71.52;63564.16;4802712;29;20213;-73
2023/09/13 03:14:39;;;;;;;2.63;2.25;;;;;;;15.16;72.73;63564.66;4816855;29;20218;-75
2023/09/13 03:17:06;;;;;;;3.42;2.47;;;;;;;15.05;73.22;63553.75;4808908;29;20217;-75
2023/09/13 03:19:33;;;;;;;4.05;2.40;;;;;;;15.00;73.95;63550.59;4817595;29;20214;-73
2023/09/13 03:22:00;;;;;;;3.70;2.80;;;;;;;14.97;74.63;63542.88;4817002;29;20237;-75
2023/09/13 03:24:26;;;;;;;3.75;2.65;;;;;;;14.90;74.98;63540.75;4816421;29;20268;-72
2023/09/13 03:26:55;;;;;;;2.90;2.63;;;;;;;14.87;74.91;63531.97;4816103;29;20293;-74
2023/09/13 03:29:22;;;;;;;3.30;3.05;;;;;;;14.77;75.10;63529.78;4817242;29;20290;-74
2023/09/13 03:31:48;;;;;;;4.88;3.33;;;;;;;14.72;75.18;63524.59;4815376;29;20251;-74
2023/09/13 03:34:15;;;;;;;3.25;3.05;;;;;;;14.71;75.37;63517.91;4813577;29;20209;-74
2023/09/13 03:36:43;;;;;;;3.10;2.80;;;;;;;14.56;75.51;63500.31;4813730;29;20267;-74
2023/09/13 03:39:10;;;;;;;3.30;3.00;;;;;;;14.60;76.62;63503.94;4816088;29;20226;-73
2023/09/13 03:41:36;;;;;;;3.17;2.90;;;;;;;14.58;76.93;63501.84;4816758;29;20283;-74
2023/09/13 03:44:05;;;;;;;2.97;2.83;;;;;;;14.57;76.96;63500.81;4814750;29;20246;-73
2023/09/13 03:46:32;;;;;;;2.60;2.38;;;;;;;14.55;77.10;63503.84;4814000;29;20254;-74
2023/09/13 03:48:59;;;;;;;3.47;3.17;;;;;;;14.56;77.25;63502.88;4803110;29;20320;-73
2023/09/13 03:51:26;;;;;;;4.20;3.63;;;;;;;14.61;76.71;63504.97;4803994;29;20226;-75
2023/09/13 03:53:53;;;;;;;3.03;2.83;;;;;;;14.56;77.16;63502.34;4814619;29;20273;-75
2023/09/13 03:56:20;;;;;;;3.97;3.17;;;;;;;14.56;77.13;63507.47;4815997;29;20237;-74
2023/09/13 03:58:48;;;;;;;4.40;3.00;;;;;;;14.54;77.42;63500.78;4816171;29;20216;-74
2023/09/13 04:01:16;;;;;;;3.80;3.60;;;;;;;14.53;78.06;63496.66;4812811;29;20230;-75
2023/09/13 04:03:44;;;;;;;5.78;2.95;;;;;;;14.55;78.15;63506.94;4807675;29;20543;-73
2023/09/13 04:06:11;;;;;;;3.88;3.17;;;;;;;14.52;77.81;63498.19;4814566;29;20339;-74
2023/09/13 04:08:38;;;;;;;3.28;3.00;;;;;;;14.47;78.41;63490.41;4812864;29;20206;-75
2023/09/13 04:11:07;;;;;;;4.28;2.58;;;;;;;14.50;78.49;63498.66;4812238;29;20234;-73
2023/09/13 04:13:40;;;;;;;5.90;3.47;;;;;;;14.49;78.91;63495.59;4816706;29;20250;-75
2023/09/13 04:16:08;;;;;;;5.72;3.38;;;;;;;14.52;78.51;63493.06;4805642;29;21567;-74
2023/09/13 04:18:37;;;;;;;4.88;3.55;;;;;;;14.54;78.89;63498.22;4813379;29;20210;-73
2023/09/13 04:21:03;;;;;;;5.95;2.75;;;;;;;14.60;78.55;63501.88;4814414;29;20585;-76
2023/09/13 04:23:30;;;;;;;3.70;3.40;;;;;;;14.67;78.23;63514.28;4814587;29;20242;-76
2023/09/13 04:25:57;;;;;;;5.85;3.00;;;;;;;14.73;78.69;63523.09;4808254;29;20229;-77
2023/09/13 04:28:24;;;;;;;8.23;3.70;;;;;;;14.76;78.55;63523.63;4814184;29;20549;-74
2023/09/13 04:30:53;;;;;;;4.18;3.40;;;;;;;14.79;78.36;63521.63;4811972;29;20246;-76
2023/09/13 04:33:48;;;;;;;5.47;3.05;;;;;;;14.89;77.72;63534.06;4811944;29;20224;-75
2023/09/13 04:36:14;;;;;;;8.98;3.70;;;;;;;14.96;78.08;63541.84;4810680;29;20517;-74
2023/09/13 04:38:41;;;;;;;5.70;2.85;;;;;;;15.03;77.87;63548.59;4798153;30;20220;-75
2023/09/13 04:41:14;;;;;;;4.68;3.60;;;;;;;15.15;77.63;63563.63;4804287;29;20438;-76
2023/09/13 04:43:40;;;;;;;5.47;3.17;;;;;;;15.23;77.36;63571.41;4811298;29;20232;-75
2023/09/13 04:46:07;;;;;;;4.03;3.53;;;;;;;15.31;76.80;63577.69;4816041;29;20238;-74
2023/09/13 04:48:34;;;;;;;4.82;3.97;;;;;;;15.40;76.65;63586.53;4818500;29;20642;-75
2023/09/13 04:51:04;;;;;;;2.58;2.38;;;;;;;15.48;76.38;63597.44;4814215;29;20233;-75
2023/09/13 04:53:32;;;;;;;6.03;3.42;;;;;;;15.55;76.07;63605.22;4815878;29;20219;-75
2023/09/13 04:56:00;;;;;;;3.53;3.22;;;;;;;15.76;73.81;63632.19;4815778;29;20408;-75
2023/09/13 04:58:28;;;;;;;6.43;2.97;;;;;;;15.87;74.15;63635.41;4808646;29;20234;-75
2023/09/13 05:00:55;;;;;;;5.85;3.30;;;;;;;15.96;75.38;63647.34;4814598;29;20294;-74
2023/09/13 05:03:21;;;;;;;3.95;3.20;;;;;;;16.09;74.28;63661.38;4821358;29;20573;-75
2023/09/13 05:05:49;;;;;;;3.60;3.30;;;;;;;16.13;74.70;63665.53;4816037;29;20586;-76
2023/09/13 05:08:17;;;;;;;3.45;3.22;;;;;;;16.24;74.04;63673.88;4814109;29;20255;-75
2023/09/13 05:10:45;;;;;;;4.00;3.63;;;;;;;16.36;71.81;63685.84;4815545;29;20232;-74
2023/09/13 05:13:12;;;;;;;3.45;3.15;;;;;;;16.42;71.04;63690.03;4816060;29;20414;-75
2023/09/13 05:15:43;;;;;;;5.40;3.53;;;;;;;16.47;69.92;63694.72;4816086;29;20237;-76
2023/09/13 05:18:10;;;;;;;3.72;3.22;;;;;;;16.54;69.78;63717.44;4814798;29;20210;-76
2023/09/13 05:20:37;;;;;;;6.80;3.85;;;;;;;16.57;70.95;63710.78;4815154;29;20233;-76
2023/09/13 05:23:05;;;;;;;7.97;3.70;;;;;;;16.71;71.65;63727.94;4817122;29;20218;-75
2023/09/13 05:25:33;;;;;;;4.35;3.67;;;;;;;16.80;72.07;63731.63;4814727;29;20286;-75
2023/09/13 05:28:00;;;;;;;6.88;4.10;;;;;;;16.96;72.77;63751.38;4814236;29;20805;-75
2023/09/13 05:30:32;;;;;;;5.32;4.18;;;;;;;17.05;70.12;63758.19;4814297;29;20225;-75
2023/09/13 05:32:59;;;;;;;5.82;3.95;;;;;;;17.16;69.16;63769.09;4814143;29;20218;-75
2023/09/13 05:35:26;;;;;;;4.78;3.40;;;;;;;17.12;68.54;63770.59;4813236;29;20236;-74
2023/09/13 05:37:53;;;;;;;5.93;3.88;;;;;;;17.07;67.38;63762.84;4816201;29;20544;-74
2023/09/13 05:40:20;;;;;;;5.95;4.07;;;;;;;17.15;66.83;63768.06;4815025;29;20234;-75
2023/09/13 05:42:48;;;;;;;6.07;3.92;;;;;;;17.27;67.03;63783.66;4814704;29;20260;-75
2023/09/13 05:45:15;;;;;;;4.25;3.78;;;;;;;17.39;67.70;63798.19;4809020;29;20290;-75
2023/09/13 05:47:42;;;;;;;7.43;4.10;;;;;;;17.56;66.39;63815.91;4815506;29;20214;-74
2023/09/13 05:50:09;;;;;;;7.18;3.92;;;;;;;17.70;65.59;63827.41;4813876;29;20229;-74
2023/09/13 05:52:39;;;;;;;9.23;3.70;;;;;;;17.75;64.07;63830.03;4820772;29;20402;-75
2023/09/13 05:55:06;;;;;;;5.55;3.53;;;;;;;17.77;64.58;63837.28;4822129;29;20549;-74
2023/09/13 05:57:33;;;;;;;6.85;4.30;;;;;;;17.84;65.13;63845.09;4814914;29;20220;-75
2023/09/13 06:00:01;;;;;;;10.40;5.28;;;;;;;17.97;63.33;63855.53;4822490;29;20357;-74
2023/09/13 06:02:28;;;;;;;5.70;3.72;;;;;;;18.09;63.48;63868.00;4810235;29;20209;-74
2023/09/13 06:04:55;;;;;;;3.95;3.58;;;;;;;18.04;61.44;63865.91;4816481;29;20249;-75
2023/09/13 06:07:22;;;;;;;16.27;4.43;;;;;;;18.05;60.56;63861.78;4811962;29;20258;-74
2023/09/13 06:09:50;;;;;;;11.00;4.57;;;;;;;18.10;61.08;63872.16;4817609;29;20257;-76
2023/09/13 06:12:17;;;;;;;6.47;4.63;;;;;;;18.12;61.75;63871.66;4816287;29;20495;-75
2023/09/13 06:14:45;;;;;;;6.78;4.47;;;;;;;18.15;63.10;63869.13;4808831;29;20233;-76
2023/09/13 06:17:14;;;;;;;10.35;5.28;;;;;;;18.23;64.70;63880.03;4805482;29;20523;-75
2023/09/13 06:19:40;;;;;;;7.72;5.03;;;;;;;18.41;63.76;63901.38;4800202;30;20214;-74
2023/09/13 06:22:08;;;;;;;11.15;4.90;;;;;;;18.58;62.43;63913.41;4814463;29;20202;-77
2023/09/13 06:24:35;;;;;;;7.75;4.30;;;;;;;18.72;63.05;63928.00;4816303;29;20699;-75
2023/09/13 06:27:02;;;;;;;6.85;4.32;;;;;;;18.79;61.58;63943.03;4812512;29;20214;-74
2023/09/13 06:29:29;;;;;;;9.98;5.18;;;;;;;18.78;60.89;63939.94;4815548;29;20280;-75
2023/09/13 06:31:57;;;;;;;10.05;5.45;;;;;;;18.82;60.23;63943.59;4812457;29;20218;-74
2023/09/13 06:34:25;;;;;;;10.82;4.78;;;;;;;18.93;59.87;63955.56;4811137;29;20210;-75
2023/09/13 06:36:52;;;;;;;18.42;5.15;;;;;;;19.09;59.89;63974.84;4800084;30;20225;-75
2023/09/13 06:39:19;;;;;;;10.98;5.13;;;;;;;19.19;59.11;63982.69;4810168;29;20213;-75
2023/09/13 06:41:46;;;;;;;13.38;5.35;;;;;;;19.12;59.14;63977.97;4809526;29;20230;-74
2023/09/13 06:44:13;;;;;;;10.18;5.30;;;;;;;19.11;59.55;63976.94;4805933;29;20534;-74
2023/09/13 06:46:42;;;;;;;14.45;5.60;;;;;;;19.20;58.66;63983.72;4807692;29;20238;-75
2023/09/13 06:49:08;;;;;;;13.93;5.50;;;;;;;19.16;58.51;63979.03;4805085;29;20210;-75
2023/09/13 06:51:37;;;;;;;18.23;5.28;;;;;;;19.29;57.96;63995.69;4807192;29;20490;-74
2023/09/13 06:54:04;;;;;;;11.43;5.75;;;;;;;19.36;58.68;64002.50;4811006;29;20213;-75
2023/09/13 06:56:31;;;;;;;9.50;5.63;;;;;;;19.50;57.25;64014.50;4805153;29;20308;-76
2023/09/13 06:58:57;;;;;;;30.35;5.15;;;;;;;19.58;57.50;64020.28;4810303;29;20217;-75
2023/09/13 07:01:24;;;;;;;11.25;5.60;;;;;;;19.59;55.99;64023.38;4807804;29;20409;-74
2023/09/13 07:03:51;;;;;;;7.78;4.68;;;;;;;19.54;57.84;64016.09;4811488;29;20646;-75
2023/09/13 07:06:18;;;;;;;12.55;5.25;;;;;;;19.61;57.44;64028.03;4805309;29;20225;-75
2023/09/13 07:08:47;;;;;;;18.63;5.25;;;;;;;19.79;56.65;64046.81;4808537;29;20221;-76
2023/09/13 07:11:14;;;;;;;12.40;5.50;;;;;;;19.93;55.58;64058.84;4811719;29;20288;-74
2023/09/13 07:13:41;;;;;;;9.57;4.47;;;;;;;19.82;55.69;64050.47;4806968;29;20385;-76
2023/09/13 07:16:07;;;;;;;5.60;4.55;;;;;;;20.01;54.69;64067.72;4808565;29;20325;-75
2023/09/13 07:18:34;;;;;;;6.63;3.95;;;;;;;20.08;54.26;64077.59;4807251;29;20231;-75
2023/09/13 07:21:01;;;;;;;7.63;4.70;;;;;;;20.20;52.57;64087.03;4807147;29;20234;-75
2023/09/13 07:23:28;;;;;;;6.43;4.10;;;;;;;20.26;52.64;64088.63;4810111;29;20206;-77
2023/09/13 07:25:57;;;;;;;6.70;4.50;;;;;;;20.49;51.95;64117.81;4803047;29;20447;-76
2023/09/13 07:28:24;;;;;;;5.90;4.70;;;;;;;20.63;51.54;64131.91;4813463;29;20219;-75
2023/09/13 07:30:51;;;;;;;8.77;4.63;;;;;;;20.75;51.26;64144.44;4809135;29;20229;-75
2023/09/13 07:33:18;;;;;;;10.27;5.00;;;;;;;20.92;51.79;64162.19;4807353;29;20534;-74
2023/09/13 07:35:46;;;;;;;14.57;4.90;;;;;;;20.92;50.83;64161.66;4806256;29;20301;-76
2023/09/13 07:38:12;;;;;;;10.85;4.43;;;;;;;20.82;50.61;64146.56;4809222;29;20206;-76
2023/09/13 07:40:40;;;;;;;10.32;5.22;;;;;;;20.88;50.54;64157.50;4807394;29;20232;-75
2023/09/13 07:43:08;;;;;;;11.32;4.97;;;;;;;20.94;50.87;64166.84;4808327;29;20624;-76
2023/09/13 07:45:36;;;;;;;5.30;4.30;;;;;;;20.96;49.99;64168.44;4805691;29;20238;-75
2023/09/13 07:48:03;;;;;;;7.47;4.40;;;;;;;21.10;49.47;64185.66;4806085;29;20209;-77
2023/09/13 07:50:32;;;;;;;10.80;4.10;;;;;;;21.37;48.86;64209.19;4807469;29;20225;-76
2023/09/13 07:52:59;;;;;;;11.30;4.20;;;;;;;21.63;48.49;64238.41;4804720;29;20247;-75
2023/09/13 07:55:26;;;;;;;5.55;4.40;;;;;;;21.57;47.39;64227.50;4808000;29;20248;-76
2023/09/13 07:57:53;;;;;;;6.30;3.55;;;;;;;21.59;48.12;64231.66;4809693;29;20210;-75
2023/09/13 08:00:21;;;;;;;9.05;3.80;;;;;;;21.70;48.16;64250.91;4805436;29;20236;-75
2023/09/13 08:02:49;;;;;;;7.15;4.05;;;;;;;21.67;48.37;64242.59;4808897;29;20376;-74
2023/09/13 08:05:16;;;;;;;6.15;3.78;;;;;;;21.88;46.95;64261.44;4813369;29;20433;-75
2023/09/13 08:07:44;;;;;;;5.15;3.47;;;;;;;22.12;47.18;64289.13;4811227;29;20210;-76
2023/09/13 08:10:11;;;;;;;6.50;3.45;;;;;;;22.23;46.56;64303.19;4811148;29;20228;-75
2023/09/13 08:12:38;;;;;;;4.47;3.63;;;;;;;22.25;45.70;64305.28;4813038;29;20213;-76
2023/09/13 08:15:06;;;;;;;5.50;3.10;;;;;;;22.39;45.28;64317.88;4811413;29;20240;-76
2023/09/13 08:17:34;;;;;;;4.07;3.60;;;;;;;22.53;45.53;64331.97;4812920;29;20428;-74
2023/09/13 08:20:01;;;;;;;8.35;3.75;;;;;;;22.50;45.78;64321.56;4804965;29;20225;-76
2023/09/13 08:22:28;;;;;;;5.15;3.58;;;;;;;22.67;45.18;64344.03;4805002;29;20391;-75
2023/09/13 08:24:55;;;;;;;5.22;3.40;;;;;;;22.74;44.79;64351.38;4809303;29;20243;-76
2023/09/13 08:27:22;;;;;;;10.88;3.83;;;;;;;22.81;44.54;64363.88;4805389;29;20205;-76
2023/09/13 08:29:49;;;;;;;5.20;4.07;;;;;;;22.75;44.34;64355.53;4805264;29;20592;-75
2023/09/13 08:32:16;;;;;;;7.82;3.88;;;;;;;22.86;43.69;64367.03;4803000;29;20390;-77
2023/09/13 08:34:44;;;;;;;3.50;3.20;;;;;;;23.13;43.72;64394.22;4807301;29;20243;-77
2023/09/13 08:37:12;;;;;;;7.55;3.20;;;;;;;23.11;44.14;64390.03;4809278;29;20206;-75
2023/09/13 08:39:39;;;;;;;6.00;3.42;;;;;;;22.96;44.22;64376.97;4801980;29;20217;-77
2023/09/13 08:42:06;;;;;;;4.10;3.22;;;;;;;22.99;43.52;64377.50;4806202;29;20269;-74
2023/09/13 08:44:36;;;;;;;4.95;3.63;;;;;;;22.98;43.21;64373.84;4819173;29;20278;-75
2023/09/13 08:47:05;;;;;;;4.00;3.47;;;;;;;23.12;43.25;64391.09;4814056;29;20216;-74
2023/09/13 08:49:35;;;;;;;3.88;3.45;;;;;;;23.25;43.08;64409.88;4815627;29;20235;-75
2023/09/13 08:52:04;;;;;;;5.15;3.83;;;;;;;23.18;42.96;64397.38;4816157;29;20276;-75
2023/09/13 08:54:33;;;;;;;6.47;3.15;;;;;;;23.26;42.17;64408.34;4803326;29;20222;-75
2023/09/13 08:57:02;;;;;;;4.78;3.55;;;;;;;23.49;41.58;64432.41;4819730;29;20226;-75
2023/09/13 08:59:29;;;;;;;5.22;3.58;;;;;;;23.77;41.56;64461.19;4812497;29;20228;-75
2023/09/13 09:01:59;;;;;;;5.30;3.53;;;;;;;23.90;41.51;64477.91;4816618;29;20213;-75
2023/09/13 09:04:26;;;;;;;4.30;3.13;;;;;;;23.96;41.84;64483.69;4814772;29;20377;-76
2023/09/13 09:06:53;;;;;;;6.68;3.28;;;;;;;24.11;41.72;64491.59;4812628;29;20220;-75
2023/09/13 09:09:28;;;;;;;3.95;3.60;;;;;;;24.07;42.14;64492.63;4815328;29;20453;-75
2023/09/13 09:11:59;;;;;;;6.70;3.90;;;;;;;24.13;41.37;64498.34;4818107;29;20515;-75
2023/09/13 09:14:31;;;;;;;5.43;3.33;;;;;;;24.15;40.77;64498.38;4810142;29;20263;-75
2023/09/13 09:17:00;;;;;;;5.68;3.55;;;;;;;24.23;40.34;64506.25;4810182;29;20542;-74
2023/09/13 09:19:28;;;;;;;10.98;4.00;;;;;;;24.28;40.73;64511.47;4813338;29;20217;-77
2023/09/13 09:21:56;;;;;;;4.28;3.55;;;;;;;24.48;40.65;64535.53;4810967;29;20213;-77
2023/09/13 09:24:24;;;;;;;4.32;2.88;;;;;;;24.68;40.25;64553.34;4813523;29;20276;-76
2023/09/13 09:26:51;;;;;;;5.57;3.15;;;;;;;24.91;39.28;64580.59;4813780;29;20209;-75
2023/09/13 09:29:20;;;;;;;3.50;3.00;;;;;;;24.99;39.14;64586.34;4815898;29;20237;-75
2023/09/13 09:31:51;;;;;;;4.47;3.47;;;;;;;25.01;39.80;64585.84;4809983;29;20252;-75
2023/09/13 09:34:18;;;;;;;4.13;3.65;;;;;;;25.14;39.35;64604.16;4811131;29;20213;-76
2023/09/13 09:36:46;;;;;;;7.30;3.47;;;;;;;25.25;39.43;64612.53;4802722;29;20308;-74
2023/09/13 09:39:15;;;;;;;7.55;3.50;;;;;;;25.36;39.13;64627.22;4820331;29;20509;-75
2023/09/13 09:41:43;;;;;;;6.20;3.58;;;;;;;25.47;38.99;64643.44;4800968;30;20617;-74
2023/09/13 09:44:10;;;;;;;10.38;3.97;;;;;;;25.46;39.03;64642.91;4811049;29;20198;-76
2023/09/13 09:46:37;;;;;;;4.10;3.78;;;;;;;25.70;38.55;64668.06;4827763;29;20272;-75
2023/09/13 09:49:06;;;;;;;11.45;4.20;;;;;;;25.61;38.46;64660.72;4818371;29;20209;-75
2023/09/13 09:51:34;;;;;;;5.57;3.70;;;;;;;25.47;38.52;64641.34;4813315;29;20237;-74
2023/09/13 09:54:01;;;;;;;6.50;3.80;;;;;;;25.52;38.36;64643.97;4816154;29;20214;-76
2023/09/13 09:56:28;;;;;;;9.10;3.58;;;;;;;25.72;38.18;64661.78;4817551;29;20236;-77
2023/09/13 09:58:57;;;;;;;3.35;3.05;;;;;;;25.94;38.20;64684.84;4818436;29;20209;-75
2023/09/13 10:01:24;;;;;;;5.28;3.67;;;;;;;25.95;37.37;64683.28;4818651;29;20229;-77
2023/09/13 10:03:54;;;;;;;3.92;3.55;;;;;;;25.88;37.67;64679.09;4812596;29;20225;-76
2023/09/13 10:06:22;;;;;;;4.43;3.50;;;;;;;25.99;37.13;64690.63;4801605;29;20314;-75
2023/09/13 10:08:50;;;;;;;4.97;3.90;;;;;;;26.07;37.23;64706.88;4813615;29;20233;-75
2023/09/13 10:11:20;;;;;;;8.43;3.85;;;;;;;26.21;36.65;64718.91;4818105;29;20229;-75
2023/09/13 10:13:47;;;;;;;4.85;3.63;;;;;;;26.34;36.72;64729.41;4801158;30;20275;-77
2023/09/13 10:16:17;;;;;;;7.43;2.97;;;;;;;26.40;35.90;64738.34;4801923;30;20242;-77
2023/09/13 10:18:46;;;;;;;5.57;3.50;;;;;;;26.44;36.28;64739.38;4829925;29;20220;-76
2023/09/13 10:21:15;;;;;;;5.88;3.33;;;;;;;26.58;36.34;64757.19;4811653;29;20306;-77
2023/09/13 10:23:45;;;;;;;7.20;3.67;;;;;;;26.44;35.68;64739.91;4803457;29;20408;-75
2023/09/13 10:26:14;;;;;;;5.47;3.13;;;;;;;26.33;36.02;64730.47;4820441;29;20245;-77
2023/09/13 10:28:45;;;;;;;3.65;3.30;;;;;;;26.44;36.85;64737.28;4817401;29;20224;-76
2023/09/13 10:31:20;;;;;;;5.82;3.72;;;;;;;26.62;36.99;64761.41;4817049;29;20229;-77
2023/09/13 10:33:52;;;;;;;9.50;4.10;;;;;;;26.97;37.55;64792.38;4819125;29;20209;-77
2023/09/13 10:36:27;;;;;;;4.28;3.63;;;;;;;27.21;37.05;64820.66;4822058;29;20242;-77
2023/09/13 10:39:07;;;;;;;4.97;4.00;;;;;;;27.31;34.86;64830.66;4819643;29;20389;-76
2023/09/13 10:41:42;;;;;;;7.07;3.50;;;;;;;27.21;34.56;64820.66;4820189;29;20568;-76
2023/09/13 10:44:11;;;;;;;5.57;4.05;;;;;;;27.22;35.22;64824.34;4809800;29;20259;-76
2023/09/13 10:46:40;;;;;;;8.20;4.05;;;;;;;27.31;35.13;64838.53;4814064;29;20435;-77
2023/09/13 10:49:07;;;;;;;6.38;3.65;;;;;;;27.57;35.65;64860.56;4809556;29;20228;-77
2023/09/13 10:51:37;;;;;;;5.88;3.70;;;;;;;27.68;34.30;64874.72;4820139;29;20557;-75
2023/09/13 10:54:04;;;;;;;5.50;3.90;;;;;;;27.87;33.97;64883.69;4813085;29;20226;-76
2023/09/13 10:56:32;;;;;;;6.05;3.75;;;;;;;27.89;34.31;64891.53;4819714;29;20232;-76
2023/09/13 10:59:01;;;;;;;8.05;3.70;;;;;;;27.59;33.82;64860.06;4817683;29;20209;-74
2023/09/13 11:01:28;;;;;;;5.15;3.80;;;;;;;27.72;33.95;64873.69;4816007;29;20478;-77
2023/09/13 11:03:57;;;;;;;5.57;4.03;;;;;;;27.75;33.97;64879.44;4820462;29;20218;-76
2023/09/13 11:06:27;;;;;;;8.32;3.60;;;;;;;27.72;33.58;64875.78;4816052;29;20426;-76
2023/09/13 11:08:55;;;;;;;3.88;3.58;;;;;;;27.86;33.52;64887.84;4826566;29;20394;-76
2023/09/13 11:11:23;;;;;;;4.72;3.95;;;;;;;28.19;32.95;64925.16;4807544;29;20251;-76
2023/09/13 11:13:53;;;;;;;7.45;3.70;;;;;;;28.38;32.57;64945.63;4804888;29;20216;-77
2023/09/13 11:16:23;;;;;;;8.27;3.45;;;;;;;28.54;32.68;64961.91;4813762;29;20250;-77
2023/09/13 11:18:51;;;;;;;7.43;3.83;;;;;;;28.70;32.56;64975.56;4800440;29;20229;-77
2023/09/13 11:21:26;;;;;;;3.55;3.35;;;;;;;28.66;32.34;64974.00;4807899;29;20570;-75
2023/09/13 11:23:57;;;;;;;6.45;3.45;;;;;;;28.53;32.63;64957.72;4812882;29;20209;-74
2023/09/13 11:26:44;;;;;;;4.78;3.67;;;;;;;28.64;34.57;64969.25;4803095;29;20279;-76
2023/09/13 11:29:24;;;;;;;6.15;3.70;;;;;;;28.67;31.63;64972.94;4816262;29;20445;-76
2023/09/13 11:31:59;;;;;;;4.68;4.28;;;;;;;28.79;33.33;64987.63;4804921;29;20210;-76
2023/09/13 11:34:26;;;;;;;6.05;3.70;;;;;;;28.92;32.55;64998.69;4814291;29;20227;-77
2023/09/13 11:36:59;;;;;;;5.75;3.15;;;;;;;29.01;33.02;65013.91;4804269;29;20218;-76